Aviation Digital Data Service (ADDS)

Output produced by METARs form (0355 UTC 22 February 2017)
found at http://aviationweather.gov/adds/metars/
 
KBTV 220328Z 2203/2224 18010G21KT P6SM OVC060 
     FM221000 18007KT P6SM BKN030 
     FM221500 18006KT P6SM BKN060